createdAt,value
2023-05-24T00:01:10.453Z,5.77
2023-05-24T00:03:39.511Z,5.76
2023-05-24T00:06:07.325Z,5.79
2023-05-24T00:08:35.243Z,5.73
2023-05-24T00:11:02.756Z,5.43
2023-05-24T00:13:30.413Z,5.32
2023-05-24T00:15:59.185Z,5.05
2023-05-24T00:18:26.626Z,5.01
2023-05-24T00:20:57.089Z,4.93
2023-05-24T00:23:24.569Z,4.91
2023-05-24T00:25:52.044Z,4.75
2023-05-24T00:28:19.536Z,4.55
2023-05-24T00:30:47.715Z,4.45
2023-05-24T00:33:16.506Z,4.47
2023-05-24T00:35:43.928Z,4.58
2023-05-24T00:38:11.522Z,4.46
2023-05-24T00:40:38.988Z,4.64
2023-05-24T00:43:06.468Z,4.66
2023-05-24T00:45:34.009Z,4.64
2023-05-24T00:48:01.584Z,4.59
2023-05-24T00:50:30.484Z,4.56
2023-05-24T00:53:01.706Z,4.40
2023-05-24T00:55:29.587Z,4.22
2023-05-24T00:57:58.130Z,4.27
2023-05-24T01:00:26.321Z,4.30
2023-05-24T01:02:55.191Z,4.20
2023-05-24T01:05:23.594Z,4.23
2023-05-24T01:08:00.683Z,4.10
2023-05-24T01:10:35.820Z,4.25
2023-05-24T01:13:09.278Z,4.22
2023-05-24T01:15:45.504Z,4.04
2023-05-24T01:18:18.018Z,4.00
2023-05-24T01:20:48.100Z,3.93
2023-05-24T01:23:27.822Z,4.12
2023-05-24T01:26:15.314Z,4.17
2023-05-24T01:28:44.904Z,4.09
2023-05-24T01:31:13.738Z,3.78
2023-05-24T01:33:42.768Z,3.91
2023-05-24T01:36:10.389Z,3.81
2023-05-24T01:38:38.606Z,3.61
2023-05-24T01:41:15.438Z,3.73
2023-05-24T01:43:53.253Z,3.54
2023-05-24T01:46:30.529Z,3.72
2023-05-24T01:49:07.643Z,3.80
2023-05-24T01:51:42.292Z,4.00
2023-05-24T01:54:10.513Z,3.97
2023-05-24T01:56:41.389Z,3.89
2023-05-24T01:59:10.610Z,3.74
2023-05-24T02:01:38.521Z,3.69
2023-05-24T02:04:06.383Z,3.65
2023-05-24T02:06:33.786Z,3.66
2023-05-24T02:09:01.323Z,3.72
2023-05-24T02:11:29.008Z,3.84
2023-05-24T02:13:56.440Z,3.89
2023-05-24T02:16:26.742Z,3.94
2023-05-24T02:18:54.399Z,4.14
2023-05-24T02:21:24.559Z,4.32
2023-05-24T02:23:52.311Z,4.16
2023-05-24T02:26:19.900Z,3.89
2023-05-24T02:28:48.455Z,3.84
2023-05-24T02:31:16.026Z,3.98
2023-05-24T02:33:44.996Z,3.79
2023-05-24T02:36:12.819Z,3.74
2023-05-24T02:38:40.483Z,3.74
2023-05-24T02:41:09.096Z,3.93
2023-05-24T02:43:36.761Z,4.02
2023-05-24T02:46:04.300Z,4.05
2023-05-24T02:48:32.297Z,4.31
2023-05-24T02:51:03.153Z,4.40
2023-05-24T02:53:31.319Z,4.53
2023-05-24T02:55:59.353Z,4.70
2023-05-24T02:58:28.946Z,4.85
2023-05-24T03:00:56.380Z,5.09
2023-05-24T03:03:23.967Z,5.09
2023-05-24T03:05:51.487Z,5.08
2023-05-24T03:08:20.237Z,5.10
2023-05-24T03:10:47.648Z,5.26
2023-05-24T03:13:15.230Z,5.25
2023-05-24T03:15:42.861Z,5.28
2023-05-24T03:18:10.332Z,5.20
2023-05-24T03:20:37.981Z,5.17
2023-05-24T03:23:05.918Z,5.09
2023-05-24T03:25:34.834Z,5.29
2023-05-24T03:28:03.370Z,5.39
2023-05-24T03:30:31.024Z,5.47
2023-05-24T03:32:58.513Z,5.73
2023-05-24T03:35:26.792Z,5.79
2023-05-24T03:37:54.244Z,5.87
2023-05-24T03:40:21.726Z,5.91
2023-05-24T03:42:51.499Z,6.03
2023-05-24T03:45:26.956Z,6.03
2023-05-24T03:47:54.693Z,6.13
2023-05-24T03:50:22.155Z,6.33
2023-05-24T03:52:49.867Z,6.50
2023-05-24T03:55:17.334Z,6.68
2023-05-24T03:57:44.783Z,6.74
2023-05-24T04:00:15.132Z,6.78
2023-05-24T04:02:43.100Z,6.85
2023-05-24T04:05:12.155Z,6.83
2023-05-24T04:07:39.817Z,6.80
2023-05-24T04:10:09.022Z,6.88
2023-05-24T04:12:36.581Z,6.93
2023-05-24T04:15:04.497Z,7.00
2023-05-24T04:17:34.928Z,7.05
2023-05-24T04:20:05.241Z,6.96
2023-05-24T04:22:35.897Z,6.96
2023-05-24T04:25:03.615Z,6.94
2023-05-24T04:27:31.355Z,6.97
2023-05-24T04:29:59.608Z,7.00
2023-05-24T04:32:30.575Z,7.03
2023-05-24T04:34:59.558Z,7.03
2023-05-24T04:37:27.450Z,7.17
2023-05-24T04:39:54.879Z,7.23
2023-05-24T04:42:22.491Z,7.37
2023-05-24T04:44:51.094Z,7.46
2023-05-24T04:47:18.530Z,7.53
2023-05-24T04:49:46.191Z,7.59
2023-05-24T04:52:15.060Z,7.63
2023-05-24T04:54:42.602Z,7.62
2023-05-24T04:57:11.704Z,7.75
2023-05-24T04:59:39.121Z,7.89
2023-05-24T05:02:06.680Z,8.13
2023-05-24T05:04:34.165Z,8.35
2023-05-24T05:07:01.583Z,8.44
2023-05-24T05:09:30.375Z,8.51
2023-05-24T05:11:58.232Z,8.69
2023-05-24T05:14:25.661Z,8.85
2023-05-24T05:16:53.240Z,9.14
2023-05-24T05:19:21.170Z,9.16
2023-05-24T05:21:48.578Z,8.95
2023-05-24T05:24:16.750Z,8.96
2023-05-24T05:26:45.656Z,9.21
2023-05-24T05:29:13.082Z,9.26
2023-05-24T05:31:40.519Z,8.99
2023-05-24T05:34:09.722Z,9.09
2023-05-24T05:36:40.591Z,9.19
2023-05-24T05:39:09.726Z,9.50
2023-05-24T05:41:38.330Z,9.91
2023-05-24T05:44:07.240Z,9.91
2023-05-24T05:46:34.764Z,9.95
2023-05-24T05:49:02.334Z,10.07
2023-05-24T05:51:30.271Z,10.07
2023-05-24T05:53:57.693Z,10.02
2023-05-24T05:56:25.121Z,10.11
2023-05-24T05:58:52.535Z,10.32
2023-05-24T06:01:21.338Z,10.71
2023-05-24T06:03:48.881Z,11.04
2023-05-24T06:06:16.451Z,11.01
2023-05-24T06:08:43.887Z,10.80
2023-05-24T06:11:11.373Z,10.69
2023-05-24T06:13:38.805Z,10.61
2023-05-24T06:16:08.456Z,10.63
2023-05-24T06:18:37.490Z,10.87
2023-05-24T06:21:05.183Z,11.01
2023-05-24T06:23:34.286Z,11.17
2023-05-24T06:26:02.348Z,11.24
2023-05-24T06:28:29.798Z,11.37
2023-05-24T06:30:57.293Z,11.25
2023-05-24T06:33:24.789Z,11.13
2023-05-24T06:35:53.571Z,11.12
2023-05-24T06:38:21.557Z,10.95
2023-05-24T06:40:49.183Z,11.49
2023-05-24T06:43:17.370Z,12.04
2023-05-24T06:45:44.782Z,12.26
2023-05-24T06:48:12.327Z,12.58
2023-05-24T06:50:42.273Z,12.57
2023-05-24T06:53:11.571Z,12.47
2023-05-24T06:55:39.000Z,12.86
2023-05-24T06:58:09.785Z,12.00
2023-05-24T07:00:37.398Z,11.48
2023-05-24T07:03:05.025Z,11.40
2023-05-24T07:05:32.554Z,11.54
2023-05-24T07:07:59.960Z,11.90
2023-05-24T07:10:28.733Z,12.29
2023-05-24T07:12:56.456Z,12.63
2023-05-24T07:15:24.073Z,13.33
2023-05-24T07:17:51.830Z,13.63
2023-05-24T07:20:19.366Z,13.90
2023-05-24T07:22:46.811Z,13.37
2023-05-24T07:25:14.524Z,13.15
2023-05-24T07:27:43.374Z,13.25
2023-05-24T07:30:23.587Z,12.89
2023-05-24T07:32:58.952Z,12.62
2023-05-24T07:35:27.017Z,12.04
2023-05-24T07:37:54.448Z,11.85
2023-05-24T07:40:23.113Z,12.04
2023-05-24T07:42:51.948Z,12.33
2023-05-24T07:45:19.423Z,12.81
2023-05-24T07:47:46.890Z,12.81
2023-05-24T07:50:14.356Z,12.98
2023-05-24T07:52:41.884Z,13.09
2023-05-24T07:55:10.039Z,13.66
2023-05-24T07:57:37.533Z,14.17
2023-05-24T08:00:14.247Z,14.74
2023-05-24T08:02:43.383Z,15.19
2023-05-24T08:05:12.804Z,14.37
2023-05-24T08:07:40.609Z,13.87
2023-05-24T08:10:12.491Z,13.64
2023-05-24T08:12:39.999Z,14.26
2023-05-24T08:15:11.867Z,13.26
2023-05-24T08:17:39.611Z,13.57
2023-05-24T08:20:10.266Z,13.71
2023-05-24T08:22:38.058Z,14.52
2023-05-24T08:25:06.678Z,14.55
2023-05-24T08:27:34.710Z,14.67
2023-05-24T08:30:02.250Z,15.28
2023-05-24T08:32:32.133Z,15.59
2023-05-24T08:35:11.110Z,15.61
2023-05-24T08:37:49.705Z,14.94
2023-05-24T08:40:24.941Z,14.72
2023-05-24T08:42:56.701Z,14.35
2023-05-24T08:45:27.525Z,14.37
2023-05-24T08:47:58.218Z,13.35
2023-05-24T08:50:26.469Z,13.17
2023-05-24T08:52:55.132Z,13.07
2023-05-24T08:55:22.959Z,12.79
2023-05-24T08:57:51.336Z,12.72
2023-05-24T09:00:20.132Z,12.39
2023-05-24T09:02:47.989Z,12.32
2023-05-24T09:05:17.712Z,12.43
2023-05-24T09:07:47.034Z,12.45
2023-05-24T09:10:14.735Z,12.75
2023-05-24T09:12:46.465Z,13.31
2023-05-24T09:15:13.928Z,13.11
2023-05-24T09:17:41.606Z,13.57
2023-05-24T09:20:11.260Z,13.57
2023-05-24T09:22:43.913Z,14.16
2023-05-24T09:25:14.041Z,14.60
2023-05-24T09:27:41.826Z,15.07
2023-05-24T09:30:11.033Z,14.62
2023-05-24T09:32:41.104Z,14.90
2023-05-24T09:35:10.348Z,15.24
2023-05-24T09:37:40.470Z,14.96
2023-05-24T09:40:18.308Z,14.59
2023-05-24T09:42:46.339Z,14.86
2023-05-24T09:45:13.818Z,14.63
2023-05-24T09:47:43.010Z,13.93
2023-05-24T09:50:14.108Z,13.67
2023-05-24T09:52:44.106Z,13.56
2023-05-24T09:55:15.695Z,13.73
2023-05-24T09:57:46.864Z,14.00
2023-05-24T10:00:17.700Z,14.34
2023-05-24T10:02:53.403Z,14.32
2023-05-24T10:05:22.182Z,13.77
2023-05-24T10:07:51.785Z,13.68
2023-05-24T10:10:19.528Z,13.33
2023-05-24T10:12:48.540Z,13.40
2023-05-24T10:15:16.604Z,13.17
2023-05-24T10:17:44.322Z,13.13
2023-05-24T10:20:13.178Z,12.52
2023-05-24T10:22:45.145Z,12.18
2023-05-24T10:25:18.662Z,12.40
2023-05-24T10:27:48.156Z,12.46
2023-05-24T10:30:19.750Z,12.81
2023-05-24T10:32:49.224Z,13.05
2023-05-24T10:35:20.225Z,12.73
2023-05-24T10:37:49.728Z,13.02
2023-05-24T10:40:20.044Z,13.27
2023-05-24T10:42:48.056Z,13.25
2023-05-24T10:45:35.834Z,12.92
2023-05-24T10:48:12.839Z,12.78
2023-05-24T10:50:41.105Z,13.32
2023-05-24T10:53:27.291Z,13.38
2023-05-24T10:55:57.993Z,13.13
2023-05-24T10:58:30.433Z,12.86
2023-05-24T11:00:58.074Z,12.57
2023-05-24T11:03:25.672Z,12.60
2023-05-24T11:05:55.347Z,12.66
2023-05-24T11:08:27.448Z,12.38
2023-05-24T11:11:23.328Z,12.51
2023-05-24T11:13:57.405Z,12.32
2023-05-24T11:16:35.798Z,12.25
2023-05-24T11:19:13.074Z,11.93
2023-05-24T11:21:40.871Z,11.81
2023-05-24T11:24:09.509Z,11.79
2023-05-24T11:26:40.396Z,11.96
2023-05-24T11:29:08.936Z,11.90
2023-05-24T11:31:42.458Z,11.85
2023-05-24T11:34:11.808Z,11.88
2023-05-24T11:36:39.573Z,12.08
2023-05-24T11:39:09.549Z,12.08
2023-05-24T11:41:39.508Z,12.04
2023-05-24T11:44:08.765Z,11.92
2023-05-24T11:46:36.698Z,12.20
2023-05-24T11:49:04.560Z,12.24
2023-05-24T11:51:33.364Z,12.53
2023-05-24T11:54:01.593Z,12.70
2023-05-24T11:56:33.269Z,12.58
2023-05-24T11:59:12.816Z,12.57
2023-05-24T12:01:40.761Z,12.71
2023-05-24T12:04:09.742Z,12.89
2023-05-24T12:06:39.071Z,12.73
2023-05-24T12:09:10.524Z,12.75
2023-05-24T12:11:42.818Z,12.76
2023-05-24T12:14:15.312Z,12.64
2023-05-24T12:16:43.323Z,12.93
2023-05-24T12:21:44.686Z,12.90
2023-05-24T12:24:13.576Z,12.97
2023-05-24T12:26:45.154Z,13.26
2023-05-24T12:29:13.177Z,13.55
2023-05-24T12:31:44.683Z,13.74
2023-05-24T12:34:13.812Z,13.97
2023-05-24T12:36:44.945Z,13.70
2023-05-24T12:39:20.140Z,13.11
2023-05-24T12:41:53.764Z,13.13
2023-05-24T12:44:28.669Z,13.50
2023-05-24T12:47:04.316Z,14.13
2023-05-24T12:49:34.693Z,13.89
2023-05-24T12:52:07.209Z,14.81
2023-05-24T12:54:35.281Z,14.93
2023-05-24T12:57:04.095Z,14.89
2023-05-24T12:59:31.774Z,15.28
2023-05-24T13:02:00.667Z,15.71
2023-05-24T13:04:29.441Z,16.38
2023-05-24T13:06:57.010Z,17.08
2023-05-24T13:09:25.834Z,17.48
2023-05-24T13:11:53.966Z,17.76
2023-05-24T13:14:21.860Z,18.12
2023-05-24T13:16:53.206Z,17.15
2023-05-24T13:19:24.964Z,15.96
2023-05-24T13:21:52.716Z,15.00
2023-05-24T13:24:20.349Z,14.32
2023-05-24T13:26:53.005Z,14.18
2023-05-24T13:29:36.668Z,13.96
2023-05-24T13:32:10.594Z,14.13
2023-05-24T13:34:39.414Z,14.09
2023-05-24T13:37:07.689Z,13.83
2023-05-24T13:39:36.705Z,14.00
2023-05-24T13:42:04.177Z,14.12
2023-05-24T13:44:32.294Z,14.09
2023-05-24T13:46:59.866Z,14.17
2023-05-24T13:49:27.640Z,14.47
2023-05-24T13:51:58.641Z,14.39
2023-05-24T13:54:26.482Z,14.46
2023-05-24T13:56:57.181Z,14.49
2023-05-24T13:59:27.486Z,14.62
2023-05-24T14:01:55.664Z,14.55
2023-05-24T14:04:23.502Z,15.67
2023-05-24T14:06:51.047Z,15.77
2023-05-24T14:09:22.153Z,15.36
2023-05-24T14:11:49.657Z,16.01
2023-05-24T14:16:51.872Z,18.71
2023-05-24T14:19:21.187Z,19.45
2023-05-24T14:21:49.000Z,18.98
2023-05-24T14:24:16.811Z,19.29
2023-05-24T14:26:47.388Z,19.42
2023-05-24T14:29:14.898Z,19.88
2023-05-24T14:31:43.067Z,19.15
2023-05-24T14:34:11.868Z,18.56
2023-05-24T14:36:42.438Z,18.17
2023-05-24T14:39:12.123Z,17.77
2023-05-24T14:41:41.539Z,16.66
2023-05-24T14:44:10.331Z,16.09
2023-05-24T14:46:38.006Z,15.24
2023-05-24T14:49:05.681Z,14.99
2023-05-24T14:51:36.830Z,14.61
2023-05-24T14:54:05.040Z,14.49
2023-05-24T14:56:32.791Z,14.36
2023-05-24T14:59:02.367Z,14.50
2023-05-24T15:01:31.702Z,14.39
2023-05-24T15:03:59.649Z,13.83
2023-05-24T15:06:30.850Z,14.02
2023-05-24T15:09:01.427Z,13.99
2023-05-24T15:11:38.351Z,14.00
2023-05-24T15:14:10.119Z,14.30
2023-05-24T15:16:41.742Z,14.27
2023-05-24T15:19:13.512Z,14.55
2023-05-24T15:21:42.946Z,14.22
2023-05-24T15:24:24.128Z,15.05
2023-05-24T15:26:55.191Z,15.33
2023-05-24T15:29:27.571Z,15.38
2023-05-24T15:32:00.863Z,15.29
2023-05-24T15:34:36.590Z,16.40
2023-05-24T15:37:04.568Z,19.87
2023-05-24T15:39:35.295Z,20.12
2023-05-24T15:42:03.805Z,19.67
2023-05-24T15:44:32.463Z,18.43
2023-05-24T15:47:01.950Z,17.83
2023-05-24T15:49:29.867Z,18.28
2023-05-24T15:52:04.352Z,18.06
2023-05-24T15:54:32.906Z,18.52
2023-05-24T15:57:01.939Z,18.40
2023-05-24T15:59:29.768Z,18.21
2023-05-24T16:01:57.620Z,17.16
2023-05-24T16:04:27.981Z,17.11
2023-05-24T16:06:56.308Z,17.17
2023-05-24T16:09:24.453Z,17.63
2023-05-24T16:11:56.028Z,18.83
2023-05-24T16:14:29.840Z,20.24
2023-05-24T16:17:00.479Z,19.84
2023-05-24T16:19:32.974Z,18.71
2023-05-24T16:22:00.724Z,18.06
2023-05-24T16:24:29.858Z,17.33
2023-05-24T16:26:58.306Z,16.50
2023-05-24T16:29:26.690Z,15.95
2023-05-24T16:31:54.302Z,15.77
2023-05-24T16:34:23.633Z,16.03
2023-05-24T16:36:52.792Z,16.07
2023-05-24T16:39:21.680Z,15.88
2023-05-24T16:41:51.231Z,16.22
2023-05-24T16:44:18.828Z,16.14
2023-05-24T16:46:47.161Z,16.25
2023-05-24T16:49:15.142Z,16.75
2023-05-24T16:51:42.975Z,17.34
2023-05-24T16:54:21.646Z,17.99
2023-05-24T16:56:49.422Z,17.64
2023-05-24T16:59:17.895Z,20.15
2023-05-24T17:01:47.164Z,20.79
2023-05-24T17:04:15.026Z,19.52
2023-05-24T17:06:43.342Z,19.40
2023-05-24T17:09:12.865Z,20.24
2023-05-24T17:11:40.807Z,20.76
2023-05-24T17:14:08.466Z,21.84
2023-05-24T17:16:36.691Z,21.74
2023-05-24T17:19:04.831Z,20.79
2023-05-24T17:21:32.728Z,19.55
2023-05-24T17:24:01.203Z,20.31
2023-05-24T17:26:30.413Z,19.06
2023-05-24T17:28:57.989Z,18.90
2023-05-24T17:31:25.745Z,19.07
2023-05-24T17:33:56.494Z,19.23
2023-05-24T17:36:26.079Z,19.43
2023-05-24T17:38:53.782Z,18.22
2023-05-24T17:41:21.649Z,17.71
2023-05-24T17:43:51.056Z,17.47
2023-05-24T17:46:18.781Z,17.42
2023-05-24T17:48:47.770Z,17.18
2023-05-24T17:51:21.600Z,16.55
2023-05-24T17:53:49.268Z,15.99
2023-05-24T17:56:17.452Z,15.54
2023-05-24T17:58:46.874Z,15.42
2023-05-24T18:01:17.027Z,14.82
2023-05-24T18:03:46.804Z,15.18
2023-05-24T18:06:14.440Z,14.85
2023-05-24T18:08:43.906Z,14.62
2023-05-24T18:11:13.262Z,14.61
2023-05-24T18:13:43.859Z,14.42
2023-05-24T18:16:12.947Z,14.45
2023-05-24T18:18:43.770Z,14.50
2023-05-24T18:21:13.062Z,14.52
2023-05-24T18:23:40.792Z,14.41
2023-05-24T18:26:09.804Z,14.46
2023-05-24T18:28:38.646Z,14.48
2023-05-24T18:31:10.320Z,14.28
2023-05-24T18:33:40.361Z,14.38
2023-05-24T18:36:10.050Z,14.33
2023-05-24T18:38:40.147Z,14.24
2023-05-24T18:41:09.533Z,14.09
2023-05-24T18:43:37.319Z,14.00
2023-05-24T18:46:05.468Z,13.95
2023-05-24T18:48:33.370Z,13.87
2023-05-24T18:51:01.042Z,13.70
2023-05-24T18:53:30.221Z,13.58
2023-05-24T18:55:57.946Z,13.45
2023-05-24T18:58:26.032Z,13.48
2023-05-24T19:00:57.400Z,13.52
2023-05-24T19:03:28.368Z,13.49
2023-05-24T19:05:56.074Z,13.49
2023-05-24T19:08:23.764Z,13.48
2023-05-24T19:10:53.105Z,13.52
2023-05-24T19:13:20.705Z,13.54
2023-05-24T19:15:49.927Z,13.56
2023-05-24T19:18:17.461Z,13.54
2023-05-24T19:20:45.338Z,13.51
2023-05-24T19:23:13.116Z,13.45
2023-05-24T19:25:42.488Z,13.36
2023-05-24T19:28:13.915Z,13.30
2023-05-24T19:30:41.511Z,13.31
2023-05-24T19:33:09.451Z,13.29
2023-05-24T19:35:37.435Z,13.16
2023-05-24T19:38:05.313Z,13.26
2023-05-24T19:40:33.211Z,13.25
2023-05-24T19:43:00.901Z,13.24
2023-05-24T19:45:30.027Z,13.15
2023-05-24T19:47:57.597Z,13.03
2023-05-24T19:50:25.829Z,12.87
2023-05-24T19:52:53.906Z,12.67
2023-05-24T19:55:21.723Z,12.77
2023-05-24T19:57:49.510Z,12.70
2023-05-24T20:00:17.831Z,12.65
2023-05-24T20:02:47.485Z,12.55
2023-05-24T20:05:17.728Z,12.69
2023-05-24T20:07:45.754Z,12.68
2023-05-24T20:10:13.769Z,12.59
2023-05-24T20:12:42.888Z,12.78
2023-05-24T20:15:12.558Z,12.84
2023-05-24T20:17:43.160Z,12.84
2023-05-24T20:20:13.307Z,12.79
2023-05-24T20:22:42.009Z,12.69
2023-05-24T20:25:09.984Z,12.63
2023-05-24T20:27:39.323Z,12.48
2023-05-24T20:30:09.942Z,12.45
2023-05-24T20:32:37.697Z,12.42
2023-05-24T20:35:06.299Z,12.39
2023-05-24T20:37:36.612Z,12.25
2023-05-24T20:40:05.351Z,12.17
2023-05-24T20:42:33.036Z,11.42
2023-05-24T20:45:00.950Z,11.95
2023-05-24T20:47:30.281Z,11.75
2023-05-24T20:49:58.419Z,11.64
2023-05-24T20:52:26.075Z,11.41
2023-05-24T20:54:55.644Z,11.35
2023-05-24T20:57:23.295Z,11.22
2023-05-24T20:59:52.453Z,11.22
2023-05-24T21:02:20.073Z,11.18
2023-05-24T21:04:47.824Z,11.02
2023-05-24T21:07:15.588Z,10.86
2023-05-24T21:09:43.374Z,10.77
2023-05-24T21:12:12.631Z,10.59
2023-05-24T21:14:40.822Z,10.60
2023-05-24T21:17:08.623Z,10.31
2023-05-24T21:19:38.927Z,10.06
2023-05-24T21:22:06.625Z,9.85
2023-05-24T21:24:34.604Z,9.78
2023-05-24T21:27:02.672Z,9.76
2023-05-24T21:29:31.798Z,9.34
2023-05-24T21:32:00.337Z,9.38
2023-05-24T21:34:29.801Z,9.42
2023-05-24T21:36:57.488Z,9.38
2023-05-24T21:39:25.286Z,9.21
2023-05-24T21:41:53.315Z,9.23
2023-05-24T21:44:21.325Z,9.18
2023-05-24T21:46:50.572Z,8.82
2023-05-24T21:49:18.974Z,8.71
2023-05-24T21:51:46.713Z,8.87
2023-05-24T21:54:15.291Z,9.03
2023-05-24T21:56:43.290Z,8.96
2023-05-24T21:59:10.943Z,9.15
2023-05-24T22:01:39.810Z,9.16
2023-05-24T22:04:11.064Z,9.36
2023-05-24T22:06:41.558Z,9.38
2023-05-24T22:09:10.738Z,9.41
2023-05-24T22:11:38.437Z,9.26
2023-05-24T22:14:07.216Z,9.37
2023-05-24T22:16:35.626Z,9.36
2023-05-24T22:19:03.511Z,9.11
2023-05-24T22:21:33.766Z,9.63
2023-05-24T22:24:01.692Z,9.67
2023-05-24T22:26:31.781Z,9.72
2023-05-24T22:29:03.748Z,9.74
2023-05-24T22:31:33.352Z,9.66
2023-05-24T22:34:02.481Z,9.63
2023-05-24T22:36:31.817Z,9.56
2023-05-24T22:39:01.225Z,9.64
2023-05-24T22:41:30.560Z,9.49
2023-05-24T22:43:59.677Z,9.64
2023-05-24T22:46:27.631Z,9.42
2023-05-24T22:48:57.941Z,9.28
2023-05-24T22:51:30.592Z,9.29
2023-05-24T22:53:58.386Z,9.28
2023-05-24T22:56:28.301Z,9.18
2023-05-24T22:58:56.620Z,9.03
2023-05-24T23:01:24.540Z,8.45
2023-05-24T23:03:52.292Z,8.88
2023-05-24T23:06:21.161Z,8.90
2023-05-24T23:08:50.574Z,8.98
2023-05-24T23:11:19.213Z,8.94
2023-05-24T23:13:51.798Z,8.92
2023-05-24T23:16:20.176Z,8.72
2023-05-24T23:18:50.350Z,8.61
2023-05-24T23:21:18.327Z,8.40
2023-05-24T23:23:49.151Z,8.23
2023-05-24T23:26:16.962Z,8.24
2023-05-24T23:28:44.687Z,8.09
2023-05-24T23:31:13.714Z,8.11
2023-05-24T23:33:41.407Z,8.15
2023-05-24T23:36:09.888Z,7.40
2023-05-24T23:38:38.067Z,7.99
2023-05-24T23:41:06.162Z,8.11
2023-05-24T23:43:34.055Z,7.94
2023-05-24T23:46:01.713Z,8.01
2023-05-24T23:48:31.175Z,8.04
2023-05-24T23:50:59.222Z,8.13
2023-05-24T23:53:27.056Z,8.01
2023-05-24T23:55:55.852Z,7.92
2023-05-24T23:58:23.958Z,7.85
